createdAt,value
2023-05-19T00:01:43.983Z,7.53
2023-05-19T00:06:42.610Z,6.70
2023-05-19T00:09:11.012Z,4.20
2023-05-19T00:11:40.051Z,6.33
2023-05-19T00:14:09.545Z,2.63
2023-05-19T00:16:37.925Z,3.73
2023-05-19T00:19:06.709Z,5.40
2023-05-19T00:21:34.681Z,4.77
2023-05-19T00:24:03.989Z,3.53
2023-05-19T00:26:31.886Z,3.57
2023-05-19T00:28:59.762Z,3.33
2023-05-19T00:31:27.768Z,5.03
2023-05-19T00:33:55.755Z,2.87
2023-05-19T00:36:23.771Z,2.53
2023-05-19T00:38:51.960Z,2.30
2023-05-19T00:41:21.262Z,5.13
2023-05-19T00:43:49.201Z,2.43
2023-05-19T00:46:17.251Z,4.97
2023-05-19T00:48:45.707Z,2.60
2023-05-19T00:51:16.724Z,2.93
2023-05-19T00:53:48.563Z,3.57
2023-05-19T00:56:17.045Z,3.63
2023-05-19T00:58:46.519Z,3.03
2023-05-19T01:01:14.695Z,3.93
2023-05-19T01:03:43.177Z,4.10
2023-05-19T01:06:12.343Z,6.23
2023-05-19T01:08:40.436Z,3.37
2023-05-19T01:11:08.623Z,3.27
2023-05-19T01:13:36.790Z,2.70
2023-05-19T01:16:08.963Z,3.03
2023-05-19T01:18:57.949Z,11.97
2023-05-19T01:22:02.124Z,3.70
2023-05-19T01:25:07.033Z,2.70
2023-05-19T01:27:47.154Z,2.70
2023-05-19T01:30:30.444Z,2.97
2023-05-19T01:33:00.587Z,2.70
2023-05-19T01:35:28.660Z,4.87
2023-05-19T01:37:57.242Z,2.93
2023-05-19T01:40:25.354Z,5.13
2023-05-19T01:42:56.648Z,2.70
2023-05-19T01:45:27.297Z,3.00
2023-05-19T01:47:57.151Z,3.00
2023-05-19T01:50:25.161Z,2.90
2023-05-19T01:52:53.145Z,7.40
2023-05-19T01:55:21.281Z,3.73
2023-05-19T01:57:54.544Z,6.33
2023-05-19T02:00:27.042Z,4.80
2023-05-19T02:02:59.139Z,5.00
2023-05-19T02:05:32.954Z,3.67
2023-05-19T02:08:07.633Z,4.57
2023-05-19T02:10:35.494Z,5.03
2023-05-19T02:13:05.583Z,3.10
2023-05-19T02:15:38.693Z,3.00
2023-05-19T02:18:07.003Z,2.87
2023-05-19T02:20:35.128Z,3.17
2023-05-19T02:23:03.249Z,4.27
2023-05-19T02:25:31.706Z,2.53
2023-05-19T02:27:59.754Z,5.07
2023-05-19T02:30:27.913Z,3.57
2023-05-19T02:32:57.223Z,2.90
2023-05-19T02:35:25.245Z,8.33
2023-05-19T02:37:54.110Z,3.83
2023-05-19T02:40:22.334Z,3.07
2023-05-19T02:42:50.357Z,3.03
2023-05-19T02:45:18.323Z,3.40
2023-05-19T02:47:46.355Z,4.13
2023-05-19T02:50:15.745Z,7.00
2023-05-19T02:52:43.635Z,3.60
2023-05-19T02:55:17.203Z,3.70
2023-05-19T02:57:45.219Z,3.03
2023-05-19T03:00:14.040Z,3.17
2023-05-19T03:02:44.089Z,4.57
2023-05-19T03:05:12.298Z,3.23
2023-05-19T03:07:41.581Z,3.00
2023-05-19T03:10:10.505Z,3.03
2023-05-19T03:12:38.436Z,5.57
2023-05-19T03:15:07.266Z,3.90
2023-05-19T03:17:36.450Z,4.57
2023-05-19T03:20:05.830Z,3.30
2023-05-19T03:22:34.135Z,5.07
2023-05-19T03:25:03.498Z,3.70
2023-05-19T03:27:31.477Z,7.83
2023-05-19T03:29:59.403Z,4.03
2023-05-19T03:32:27.497Z,3.20
2023-05-19T03:34:55.494Z,8.33
2023-05-19T03:37:23.373Z,3.07
2023-05-19T03:39:51.301Z,2.90
2023-05-19T03:42:20.614Z,3.20
2023-05-19T03:44:48.570Z,2.83
2023-05-19T03:47:16.446Z,2.80
2023-05-19T03:49:44.396Z,2.87
2023-05-19T03:52:12.694Z,4.13
2023-05-19T03:54:42.664Z,2.90
2023-05-19T03:57:11.047Z,3.40
2023-05-19T03:59:41.422Z,5.30
2023-05-19T04:02:09.506Z,3.50
2023-05-19T04:04:38.516Z,4.77
2023-05-19T04:07:07.210Z,3.70
2023-05-19T04:09:35.576Z,3.33
2023-05-19T04:12:03.803Z,5.63
2023-05-19T04:14:31.716Z,3.57
2023-05-19T04:17:01.039Z,3.57
2023-05-19T04:19:29.137Z,3.50
2023-05-19T04:21:57.158Z,4.73
2023-05-19T04:24:25.076Z,3.40
2023-05-19T04:26:53.328Z,5.33
2023-05-19T04:29:23.469Z,6.37
2023-05-19T04:31:52.777Z,6.63
2023-05-19T04:34:22.096Z,4.53
2023-05-19T04:36:53.143Z,6.00
2023-05-19T04:39:21.651Z,7.10
2023-05-19T04:41:49.582Z,8.27
2023-05-19T04:44:18.547Z,3.97
2023-05-19T04:46:46.518Z,5.90
2023-05-19T04:49:14.569Z,7.03
2023-05-19T04:51:46.179Z,7.40
2023-05-19T04:54:14.110Z,4.10
2023-05-19T04:56:42.144Z,4.43
2023-05-19T04:59:10.149Z,3.50
2023-05-19T05:01:41.496Z,4.27
2023-05-19T05:04:09.484Z,7.70
2023-05-19T05:06:40.585Z,7.97
2023-05-19T05:09:10.562Z,10.93
2023-05-19T05:11:38.991Z,8.00
2023-05-19T05:14:07.348Z,3.93
2023-05-19T05:16:36.145Z,8.90
2023-05-19T05:19:04.553Z,6.17
2023-05-19T05:21:32.971Z,5.53
2023-05-19T05:24:01.354Z,8.83
2023-05-19T05:26:32.004Z,6.33
2023-05-19T05:28:59.901Z,4.67
2023-05-19T05:31:27.919Z,4.27
2023-05-19T05:33:55.982Z,6.70
2023-05-19T05:36:23.928Z,8.90
2023-05-19T05:38:51.910Z,7.57
2023-05-19T05:41:19.927Z,7.80
2023-05-19T05:43:49.213Z,4.87
2023-05-19T05:46:17.978Z,4.87
2023-05-19T05:48:46.503Z,8.73
2023-05-19T05:51:14.873Z,5.83
2023-05-19T05:53:44.374Z,9.63
2023-05-19T05:56:13.790Z,6.90
2023-05-19T05:58:41.738Z,5.53
2023-05-19T06:01:11.655Z,4.47
2023-05-19T06:03:42.516Z,4.23
2023-05-19T06:06:10.475Z,7.97
2023-05-19T06:08:38.432Z,6.50
2023-05-19T06:11:08.825Z,4.80
2023-05-19T06:13:36.881Z,8.60
2023-05-19T06:16:05.199Z,4.80
2023-05-19T06:18:34.576Z,8.07
2023-05-19T06:21:03.356Z,8.80
2023-05-19T06:23:31.670Z,6.57
2023-05-19T06:25:59.703Z,4.90
2023-05-19T06:28:27.623Z,5.43
2023-05-19T06:30:55.553Z,4.73
2023-05-19T06:33:23.486Z,9.40
2023-05-19T06:35:52.835Z,7.87
2023-05-19T06:38:20.798Z,11.40
2023-05-19T06:40:49.311Z,5.93
2023-05-19T06:43:17.867Z,6.17
2023-05-19T06:45:46.204Z,8.40
2023-05-19T06:48:14.232Z,7.70
2023-05-19T06:50:42.180Z,8.97
2023-05-19T06:53:11.479Z,7.43
2023-05-19T06:55:54.382Z,8.60
2023-05-19T06:58:26.814Z,10.60
2023-05-19T07:00:54.831Z,12.23
2023-05-19T07:03:22.880Z,9.60
2023-05-19T07:05:51.102Z,10.03
2023-05-19T07:08:20.916Z,13.57
2023-05-19T07:10:48.841Z,11.20
2023-05-19T07:13:16.898Z,8.43
2023-05-19T07:15:44.847Z,8.57
2023-05-19T07:18:12.940Z,9.77
2023-05-19T07:20:40.962Z,5.37
2023-05-19T07:23:08.955Z,8.40
2023-05-19T07:25:38.264Z,7.07
2023-05-19T07:28:06.399Z,4.00
2023-05-19T07:30:34.468Z,16.10
2023-05-19T07:33:02.704Z,8.53
2023-05-19T07:35:30.828Z,7.03
2023-05-19T07:37:58.759Z,5.33
2023-05-19T07:40:26.704Z,10.37
2023-05-19T07:42:56.027Z,8.73
2023-05-19T07:45:23.943Z,9.60
2023-05-19T07:47:52.671Z,4.17
2023-05-19T07:50:20.665Z,10.07
2023-05-19T07:52:48.643Z,5.33
2023-05-19T07:55:18.001Z,7.43
2023-05-19T07:57:46.004Z,8.20
2023-05-19T08:00:16.630Z,4.40
2023-05-19T08:02:44.716Z,10.43
2023-05-19T08:05:12.718Z,4.63
2023-05-19T08:07:40.675Z,7.07
2023-05-19T08:10:09.387Z,6.87
2023-05-19T08:12:37.278Z,5.53
2023-05-19T08:15:05.930Z,7.87
2023-05-19T08:17:35.269Z,5.07
2023-05-19T08:20:05.094Z,8.07
2023-05-19T08:22:33.098Z,7.87
2023-05-19T08:25:01.453Z,11.37
2023-05-19T08:27:30.048Z,5.10
2023-05-19T08:29:57.949Z,3.97
2023-05-19T08:32:25.898Z,7.27
2023-05-19T08:34:55.230Z,5.20
2023-05-19T08:37:23.106Z,6.43
2023-05-19T08:39:51.011Z,7.37
2023-05-19T08:42:18.952Z,5.77
2023-05-19T08:44:46.861Z,5.57
2023-05-19T08:47:14.788Z,6.03
2023-05-19T08:49:45.342Z,8.80
2023-05-19T08:52:21.058Z,4.63
2023-05-19T08:54:52.649Z,3.73
2023-05-19T08:57:20.587Z,5.50
2023-05-19T08:59:49.028Z,5.57
2023-05-19T09:02:16.998Z,7.10
2023-05-19T09:04:46.180Z,2.80
2023-05-19T09:07:14.704Z,3.40
2023-05-19T09:09:44.239Z,5.77
2023-05-19T09:12:12.399Z,3.20
2023-05-19T09:14:40.432Z,9.40
2023-05-19T09:17:08.479Z,4.57
2023-05-19T09:19:36.496Z,3.90
2023-05-19T09:22:04.820Z,10.63
2023-05-19T09:24:32.897Z,5.30
2023-05-19T09:27:02.284Z,6.77
2023-05-19T09:29:30.215Z,3.50
2023-05-19T09:32:01.024Z,5.63
2023-05-19T09:34:29.117Z,3.73
2023-05-19T09:36:58.071Z,4.33
2023-05-19T09:39:26.356Z,5.67
2023-05-19T09:41:54.789Z,7.53
2023-05-19T09:44:29.383Z,5.00
2023-05-19T09:46:59.873Z,5.93
2023-05-19T09:49:29.596Z,6.23
2023-05-19T09:51:57.830Z,6.17
2023-05-19T09:54:27.494Z,5.63
2023-05-19T09:56:59.836Z,7.33
2023-05-19T09:59:32.307Z,5.87
2023-05-19T10:02:02.287Z,8.13
2023-05-19T10:04:31.007Z,9.43
2023-05-19T10:07:00.458Z,8.33
2023-05-19T10:09:29.789Z,7.23
2023-05-19T10:11:58.682Z,4.73
2023-05-19T10:14:27.691Z,5.57
2023-05-19T10:16:58.156Z,7.20
2023-05-19T10:19:26.776Z,5.93
2023-05-19T10:21:54.923Z,4.50
2023-05-19T10:24:23.061Z,6.68
2023-05-19T10:26:52.901Z,5.97
2023-05-19T10:29:22.327Z,7.68
2023-05-19T10:31:50.260Z,3.38
2023-05-19T10:34:30.239Z,4.25
2023-05-19T10:37:03.207Z,7.60
2023-05-19T10:39:35.500Z,6.30
2023-05-19T10:42:06.264Z,3.92
2023-05-19T10:44:41.902Z,7.30
2023-05-19T10:47:12.139Z,6.53
2023-05-19T10:49:41.728Z,4.60
2023-05-19T10:52:21.544Z,5.30
2023-05-19T10:54:49.663Z,5.53
2023-05-19T10:57:17.876Z,8.00
2023-05-19T10:59:45.862Z,4.88
2023-05-19T11:02:40.323Z,7.07
2023-05-19T11:05:14.621Z,3.67
2023-05-19T11:07:44.290Z,4.55
2023-05-19T11:10:12.802Z,3.42
2023-05-19T11:12:44.275Z,3.40
2023-05-19T11:15:14.596Z,3.67
2023-05-19T11:17:43.469Z,3.50
2023-05-19T11:20:22.806Z,7.47
2023-05-19T11:23:06.486Z,4.38
2023-05-19T11:25:44.647Z,7.75
2023-05-19T11:28:13.604Z,7.53
2023-05-19T11:30:42.711Z,4.07
2023-05-19T11:33:11.184Z,3.45
2023-05-19T11:35:41.131Z,5.43
2023-05-19T11:38:09.170Z,11.00
2023-05-19T11:40:37.237Z,4.90
2023-05-19T11:43:05.147Z,3.25
2023-05-19T11:45:34.308Z,6.72
2023-05-19T11:48:03.455Z,3.92
2023-05-19T11:50:32.111Z,3.45
2023-05-19T11:53:02.410Z,9.43
2023-05-19T11:55:31.265Z,3.42
2023-05-19T11:58:04.038Z,7.18
2023-05-19T12:00:37.757Z,8.73
2023-05-19T12:03:06.010Z,3.35
2023-05-19T12:05:37.946Z,6.13
2023-05-19T12:08:09.407Z,5.65
2023-05-19T12:10:37.471Z,7.93
2023-05-19T12:13:06.430Z,9.52
2023-05-19T12:15:34.625Z,5.85
2023-05-19T12:18:03.093Z,7.15
2023-05-19T12:20:32.671Z,5.03
2023-05-19T12:23:33.841Z,4.45
2023-05-19T12:26:01.948Z,5.15
2023-05-19T12:28:31.230Z,5.82
2023-05-19T12:30:59.203Z,5.25
2023-05-19T12:33:27.148Z,3.83
2023-05-19T12:35:55.358Z,4.95
2023-05-19T12:38:23.893Z,5.93
2023-05-19T12:40:53.299Z,4.97
2023-05-19T12:43:22.071Z,4.15
2023-05-19T12:45:50.123Z,4.25
2023-05-19T12:48:18.226Z,18.25
2023-05-19T12:50:46.346Z,6.95
2023-05-19T12:53:14.626Z,5.30
2023-05-19T12:55:43.788Z,5.85
2023-05-19T12:58:13.234Z,3.38
2023-05-19T13:00:45.733Z,8.23
2023-05-19T13:03:16.564Z,6.82
2023-05-19T13:05:46.516Z,4.57
2023-05-19T13:08:16.202Z,5.25
2023-05-19T13:10:46.317Z,5.90
2023-05-19T13:13:15.672Z,4.70
2023-05-19T13:15:44.504Z,6.32
2023-05-19T13:18:13.303Z,3.50
2023-05-19T13:20:42.364Z,4.30
2023-05-19T13:23:11.858Z,3.67
2023-05-19T13:25:39.853Z,8.73
2023-05-19T13:28:08.022Z,7.30
2023-05-19T13:30:38.649Z,7.43
2023-05-19T13:33:06.797Z,8.52
2023-05-19T13:35:37.575Z,9.48
2023-05-19T13:38:06.192Z,9.48
2023-05-19T13:40:34.949Z,8.43
2023-05-19T13:43:03.274Z,11.70
2023-05-19T13:45:31.210Z,6.40
2023-05-19T13:48:00.576Z,12.27
2023-05-19T13:50:28.622Z,11.73
2023-05-19T13:52:56.577Z,4.38
2023-05-19T13:55:26.318Z,9.00
2023-05-19T13:57:54.411Z,11.65
2023-05-19T14:00:22.564Z,8.02
2023-05-19T14:02:50.590Z,12.02
2023-05-19T14:05:20.668Z,8.85
2023-05-19T14:07:48.714Z,6.35
2023-05-19T14:10:16.684Z,9.07
2023-05-19T14:13:07.918Z,12.25
2023-05-19T14:15:34.631Z,9.65
2023-05-19T14:18:03.636Z,10.98
2023-05-19T14:20:34.252Z,13.63
2023-05-19T14:23:03.105Z,8.52
2023-05-19T14:25:31.122Z,8.48
2023-05-19T14:27:59.098Z,13.00
2023-05-19T14:30:27.216Z,17.63
2023-05-19T14:32:55.256Z,12.73
2023-05-19T14:35:23.809Z,11.52
2023-05-19T14:37:53.265Z,13.52
2023-05-19T14:40:21.188Z,10.75
2023-05-19T14:42:49.136Z,14.32
2023-05-19T14:45:17.360Z,8.63
2023-05-19T14:47:46.209Z,14.60
2023-05-19T14:50:15.494Z,9.48
2023-05-19T14:52:43.503Z,9.55
2023-05-19T14:55:12.740Z,18.80
2023-05-19T14:57:40.846Z,12.32
2023-05-19T15:00:10.374Z,11.98
2023-05-19T15:02:38.413Z,8.55
2023-05-19T15:05:06.940Z,10.85
2023-05-19T15:07:34.977Z,12.00
2023-05-19T15:10:03.113Z,14.75
2023-05-19T15:12:32.468Z,11.52
2023-05-19T15:15:00.638Z,14.43
2023-05-19T15:17:28.636Z,14.88
2023-05-19T15:19:56.671Z,15.30
2023-05-19T15:22:24.664Z,11.15
2023-05-19T15:24:52.590Z,11.63
2023-05-19T15:27:20.858Z,17.23
2023-05-19T15:29:50.162Z,11.35
2023-05-19T15:32:18.372Z,15.13
2023-05-19T15:34:46.325Z,14.45
2023-05-19T15:37:14.291Z,14.85
2023-05-19T15:39:42.236Z,16.08
2023-05-19T15:42:10.250Z,15.10
2023-05-19T15:44:38.581Z,16.67
2023-05-19T15:47:07.991Z,13.93
2023-05-19T15:49:35.967Z,17.38
2023-05-19T15:52:04.530Z,17.92
2023-05-19T15:54:32.498Z,13.63
2023-05-19T15:57:00.409Z,16.67
2023-05-19T15:59:28.331Z,16.20
2023-05-19T16:01:56.258Z,17.63
2023-05-19T16:04:25.634Z,15.75
2023-05-19T16:06:53.537Z,14.70
2023-05-19T16:09:21.579Z,19.10
2023-05-19T16:11:49.708Z,14.57
2023-05-19T16:14:17.679Z,18.30
2023-05-19T16:16:45.935Z,17.10
2023-05-19T16:19:14.118Z,14.40
2023-05-19T16:21:43.705Z,14.13
2023-05-19T16:24:11.721Z,18.45
2023-05-19T16:26:39.687Z,14.40
2023-05-19T16:29:07.593Z,18.55
2023-05-19T16:31:35.687Z,13.60
2023-05-19T16:34:03.723Z,15.55
2023-05-19T16:36:31.870Z,9.02
2023-05-19T16:39:01.287Z,21.58
2023-05-19T16:41:29.234Z,18.42
2023-05-19T16:43:57.181Z,16.38
2023-05-19T16:46:25.375Z,14.88
2023-05-19T16:48:53.643Z,11.57
2023-05-19T16:51:21.901Z,18.27
2023-05-19T16:53:49.941Z,14.77
2023-05-19T16:56:19.260Z,19.08
2023-05-19T16:58:47.391Z,17.77
2023-05-19T17:01:15.344Z,13.43
2023-05-19T17:03:43.629Z,19.33
2023-05-19T17:06:11.618Z,16.60
2023-05-19T17:08:39.478Z,22.90
2023-05-19T17:11:07.584Z,20.27
2023-05-19T17:13:37.229Z,16.20
2023-05-19T17:16:05.305Z,19.05
2023-05-19T17:18:33.929Z,15.43
2023-05-19T17:21:04.047Z,17.40
2023-05-19T17:23:32.294Z,21.83
2023-05-19T17:26:00.336Z,18.85
2023-05-19T17:28:28.432Z,17.20
2023-05-19T17:30:57.801Z,20.08
2023-05-19T17:33:25.900Z,18.20
2023-05-19T17:35:53.920Z,21.55
2023-05-19T17:38:21.884Z,19.80
2023-05-19T17:40:49.755Z,22.23
2023-05-19T17:43:17.673Z,16.90
2023-05-19T17:45:45.544Z,21.08
2023-05-19T17:48:14.986Z,16.23
2023-05-19T17:50:42.886Z,21.42
2023-05-19T17:53:11.390Z,20.70
2023-05-19T17:55:39.948Z,16.13
2023-05-19T17:58:08.408Z,19.27
2023-05-19T18:00:36.925Z,20.23
2023-05-19T18:03:06.284Z,16.45
2023-05-19T18:05:37.491Z,18.52
2023-05-19T18:08:07.157Z,23.63
2023-05-19T18:10:37.030Z,19.75
2023-05-19T18:13:05.071Z,19.98
2023-05-19T18:15:33.006Z,21.27
2023-05-19T18:18:01.139Z,17.58
2023-05-19T18:20:30.964Z,18.85
2023-05-19T18:23:00.954Z,17.98
2023-05-19T18:25:28.972Z,17.63
2023-05-19T18:27:56.883Z,20.33
2023-05-19T18:30:24.833Z,13.48
2023-05-19T18:32:52.774Z,20.52
2023-05-19T18:35:21.314Z,22.67
2023-05-19T18:37:49.303Z,16.65
2023-05-19T18:40:18.805Z,14.25
2023-05-19T18:42:47.849Z,25.27
2023-05-19T18:45:16.097Z,24.85
2023-05-19T18:47:44.035Z,20.80
2023-05-19T18:50:12.120Z,15.15
2023-05-19T18:52:40.119Z,20.30
2023-05-19T18:55:08.929Z,20.52
2023-05-19T18:57:38.205Z,13.40
2023-05-19T19:00:07.243Z,16.97
2023-05-19T19:02:35.173Z,21.00
2023-05-19T19:05:04.093Z,23.52
2023-05-19T19:07:32.104Z,21.97
2023-05-19T19:10:00.008Z,16.97
2023-05-19T19:12:27.909Z,19.27
2023-05-19T19:14:57.296Z,18.50
2023-05-19T19:17:25.326Z,14.80
2023-05-19T19:19:53.525Z,21.63
2023-05-19T19:22:21.567Z,17.07
2023-05-19T19:24:49.628Z,13.30
2023-05-19T19:27:17.758Z,13.90
2023-05-19T19:29:45.928Z,16.07
2023-05-19T19:32:15.245Z,19.40
2023-05-19T19:34:43.325Z,19.67
2023-05-19T19:37:11.355Z,17.47
2023-05-19T19:39:39.519Z,22.90
2023-05-19T19:42:07.499Z,18.40
2023-05-19T19:44:35.496Z,19.60
2023-05-19T19:47:06.086Z,19.93
2023-05-19T19:49:35.612Z,19.43
2023-05-19T19:52:03.672Z,12.90
2023-05-19T19:54:31.551Z,15.47
2023-05-19T19:56:59.551Z,18.60
2023-05-19T19:59:27.621Z,16.33
2023-05-19T20:01:55.753Z,21.43
2023-05-19T20:04:23.928Z,17.03
2023-05-19T20:06:53.554Z,14.07
2023-05-19T20:09:22.013Z,19.90
2023-05-19T20:11:49.949Z,17.73
2023-05-19T20:14:18.892Z,27.20
2023-05-19T20:16:47.170Z,22.90
2023-05-19T20:19:15.357Z,18.27
2023-05-19T20:21:43.584Z,14.63
2023-05-19T20:24:13.079Z,23.60
2023-05-19T20:26:41.333Z,19.60
2023-05-19T20:29:09.252Z,15.77
2023-05-19T20:31:37.343Z,21.33
2023-05-19T20:34:05.602Z,17.87
2023-05-19T20:36:33.555Z,16.93
2023-05-19T20:39:01.447Z,22.67
2023-05-19T20:41:31.394Z,20.00
2023-05-19T20:43:59.286Z,14.30
2023-05-19T20:46:27.278Z,18.17
2023-05-19T20:48:55.422Z,18.60
2023-05-19T20:51:25.192Z,12.37
2023-05-19T20:53:53.090Z,24.07
2023-05-19T20:56:22.490Z,19.97
2023-05-19T20:58:51.932Z,13.53
2023-05-19T21:01:19.925Z,14.43
2023-05-19T21:03:47.954Z,15.13
2023-05-19T21:06:16.081Z,19.50
2023-05-19T21:08:44.002Z,24.20
2023-05-19T21:11:11.900Z,18.27
2023-05-19T21:13:39.877Z,19.10
2023-05-19T21:16:09.359Z,21.27
2023-05-19T21:18:37.285Z,26.67
2023-05-19T21:21:05.479Z,16.77
2023-05-19T21:23:33.775Z,19.80
2023-05-19T21:26:01.653Z,12.47
2023-05-19T21:28:29.553Z,15.70
2023-05-19T21:30:57.494Z,13.17
2023-05-19T21:33:26.919Z,13.03
2023-05-19T21:35:54.940Z,18.47
2023-05-19T21:38:24.318Z,16.80
2023-05-19T21:40:52.854Z,18.13
2023-05-19T21:43:21.803Z,15.50
2023-05-19T21:45:49.779Z,22.40
2023-05-19T21:48:17.782Z,14.83
2023-05-19T21:50:47.132Z,17.13
2023-05-19T21:53:15.147Z,17.17
2023-05-19T21:55:43.051Z,12.97
2023-05-19T21:58:11.141Z,23.60
2023-05-19T22:00:39.119Z,16.93
2023-05-19T22:03:07.366Z,18.10
2023-05-19T22:05:38.074Z,22.43
2023-05-19T22:08:07.600Z,16.23
2023-05-19T22:10:37.361Z,18.97
2023-05-19T22:13:05.517Z,16.53
2023-05-19T22:15:33.454Z,15.10
2023-05-19T22:18:01.629Z,20.70
2023-05-19T22:20:29.837Z,16.53
2023-05-19T22:22:59.491Z,16.80
2023-05-19T22:25:29.269Z,18.90
2023-05-19T22:28:01.418Z,17.07
2023-05-19T22:30:30.472Z,15.07
2023-05-19T22:33:01.166Z,16.40
2023-05-19T22:35:29.411Z,22.57
2023-05-19T22:37:57.296Z,23.07
2023-05-19T22:40:25.272Z,18.07
2023-05-19T22:42:54.533Z,20.13
2023-05-19T22:45:22.767Z,13.73
2023-05-19T22:47:51.242Z,15.33
2023-05-19T22:50:19.284Z,17.07
2023-05-19T22:52:47.233Z,20.30
2023-05-19T22:55:15.176Z,15.87
2023-05-19T22:57:43.061Z,16.40
2023-05-19T23:00:14.134Z,13.37
2023-05-19T23:02:42.483Z,20.37
2023-05-19T23:05:10.665Z,19.27
2023-05-19T23:07:38.571Z,21.07
2023-05-19T23:10:07.582Z,14.87
2023-05-19T23:12:35.787Z,16.70
2023-05-19T23:15:03.833Z,11.47
2023-05-19T23:17:33.232Z,23.83
2023-05-19T23:20:01.264Z,12.87
2023-05-19T23:22:29.156Z,18.23
2023-05-19T23:24:57.056Z,17.83
2023-05-19T23:27:25.205Z,13.00
2023-05-19T23:29:53.598Z,14.13
2023-05-19T23:32:21.447Z,15.07
2023-05-19T23:34:50.724Z,12.10
2023-05-19T23:37:18.628Z,17.03
2023-05-19T23:39:46.516Z,15.30
2023-05-19T23:42:14.388Z,14.23
2023-05-19T23:44:42.364Z,15.97
2023-05-19T23:47:10.271Z,12.87
2023-05-19T23:49:38.199Z,14.47
2023-05-19T23:52:08.009Z,16.83
2023-05-19T23:54:35.911Z,13.57
2023-05-19T23:57:04.194Z,9.73
2023-05-19T23:59:32.098Z,13.13
